sensor_id;sensor_type;location;lat;lon;timestamp;temperature;humidity
73875;HTU21D;62209;47.568;7.558;2024-01-15T00:14:29;-0.41;106.96
73875;HTU21D;62209;47.568;7.558;2024-01-15T00:29:35;-0.15;107.41
73875;HTU21D;62209;47.568;7.558;2024-01-15T00:44:40;-0.12;105.55
73875;HTU21D;62209;47.568;7.558;2024-01-15T00:59:46;-0.19;105.61
73875;HTU21D;62209;47.568;7.558;2024-01-15T01:14:52;-0.38;105.79
73875;HTU21D;62209;47.568;7.558;2024-01-15T01:29:58;-0.67;104.69
73875;HTU21D;62209;47.568;7.558;2024-01-15T01:45:04;-0.96;104.09
73875;HTU21D;62209;47.568;7.558;2024-01-15T02:00:11;-1.13;103.57
73875;HTU21D;62209;47.568;7.558;2024-01-15T02:15:18;-1.53;104.21
73875;HTU21D;62209;47.568;7.558;2024-01-15T02:30:23;-1.74;104.15
73875;HTU21D;62209;47.568;7.558;2024-01-15T02:45:31;-1.87;104.10
73875;HTU21D;62209;47.568;7.558;2024-01-15T03:00:36;-1.60;104.92
73875;HTU21D;62209;47.568;7.558;2024-01-15T03:15:42;-1.41;105.37
73875;HTU21D;62209;47.568;7.558;2024-01-15T03:30:48;-1.20;106.56
73875;HTU21D;62209;47.568;7.558;2024-01-15T03:45:53;-0.71;105.82
73875;HTU21D;62209;47.568;7.558;2024-01-15T04:01:00;0.07;102.42
73875;HTU21D;62209;47.568;7.558;2024-01-15T04:16:05;0.10;102.27
73875;HTU21D;62209;47.568;7.558;2024-01-15T04:31:11;0.16;101.62
73875;HTU21D;62209;47.568;7.558;2024-01-15T04:46:26;0.13;100.78
73875;HTU21D;62209;47.568;7.558;2024-01-15T05:01:32;0.35;99.60
73875;HTU21D;62209;47.568;7.558;2024-01-15T05:16:39;0.28;100.73
73875;HTU21D;62209;47.568;7.558;2024-01-15T05:31:51;0.36;100.79
73875;HTU21D;62209;47.568;7.558;2024-01-15T05:46:56;-0.10;101.39
73875;HTU21D;62209;47.568;7.558;2024-01-15T06:02:02;0.05;98.77
73875;HTU21D;62209;47.568;7.558;2024-01-15T06:17:08;0.13;97.97
73875;HTU21D;62209;47.568;7.558;2024-01-15T06:32:14;0.17;97.87
73875;HTU21D;62209;47.568;7.558;2024-01-15T06:47:19;0.21;97.47
73875;HTU21D;62209;47.568;7.558;2024-01-15T07:02:25;0.13;98.97
73875;HTU21D;62209;47.568;7.558;2024-01-15T07:17:30;0.22;99.31
73875;HTU21D;62209;47.568;7.558;2024-01-15T07:32:36;0.15;99.87
73875;HTU21D;62209;47.568;7.558;2024-01-15T07:47:42;0.20;99.45
73875;HTU21D;62209;47.568;7.558;2024-01-15T08:02:48;0.34;97.70
73875;HTU21D;62209;47.568;7.558;2024-01-15T08:17:56;0.61;96.65
73875;HTU21D;62209;47.568;7.558;2024-01-15T08:33:02;0.86;96.40
73875;HTU21D;62209;47.568;7.558;2024-01-15T08:48:21;1.10;96.31
73875;HTU21D;62209;47.568;7.558;2024-01-15T09:03:30;2.23;93.78
73875;HTU21D;62209;47.568;7.558;2024-01-15T09:18:37;3.72;88.50
73875;HTU21D;62209;47.568;7.558;2024-01-15T09:33:43;5.18;83.94
73875;HTU21D;62209;47.568;7.558;2024-01-15T09:48:49;5.15;81.56
73875;HTU21D;62209;47.568;7.558;2024-01-15T10:03:54;3.47;88.60
73875;HTU21D;62209;47.568;7.558;2024-01-15T10:19:00;3.42;89.34
73875;HTU21D;62209;47.568;7.558;2024-01-15T10:34:13;3.00;91.31
73875;HTU21D;62209;47.568;7.558;2024-01-15T10:49:19;2.69;93.32
73875;HTU21D;62209;47.568;7.558;2024-01-15T11:04:35;2.00;96.07
73875;HTU21D;62209;47.568;7.558;2024-01-15T11:19:44;2.06;96.83
73875;HTU21D;62209;47.568;7.558;2024-01-15T11:34:52;1.68;97.21
73875;HTU21D;62209;47.568;7.558;2024-01-15T11:50:03;1.56;97.77
73875;HTU21D;62209;47.568;7.558;2024-01-15T12:05:12;1.49;99.26
73875;HTU21D;62209;47.568;7.558;2024-01-15T12:20:19;1.45;99.54
73875;HTU21D;62209;47.568;7.558;2024-01-15T12:35:25;1.54;99.45
73875;HTU21D;62209;47.568;7.558;2024-01-15T12:50:30;1.54;98.87
73875;HTU21D;62209;47.568;7.558;2024-01-15T13:05:38;1.68;98.30
73875;HTU21D;62209;47.568;7.558;2024-01-15T13:20:45;1.81;96.93
73875;HTU21D;62209;47.568;7.558;2024-01-15T13:35:51;1.92;97.45
73875;HTU21D;62209;47.568;7.558;2024-01-15T13:50:57;1.82;97.94
73875;HTU21D;62209;47.568;7.558;2024-01-15T14:06:03;1.88;96.62
73875;HTU21D;62209;47.568;7.558;2024-01-15T14:21:12;1.88;96.21
73875;HTU21D;62209;47.568;7.558;2024-01-15T14:36:17;1.88;95.62
73875;HTU21D;62209;47.568;7.558;2024-01-15T14:51:23;1.91;95.17
73875;HTU21D;62209;47.568;7.558;2024-01-15T15:06:29;1.81;96.08
73875;HTU21D;62209;47.568;7.558;2024-01-15T15:21:36;1.78;95.72
73875;HTU21D;62209;47.568;7.558;2024-01-15T15:36:41;1.63;97.18
73875;HTU21D;62209;47.568;7.558;2024-01-15T15:51:47;1.45;99.13
73875;HTU21D;62209;47.568;7.558;2024-01-15T16:06:53;1.31;100.45
73875;HTU21D;62209;47.568;7.558;2024-01-15T16:21:58;1.23;101.36
73875;HTU21D;62209;47.568;7.558;2024-01-15T16:37:24;1.27;101.03
73875;HTU21D;62209;47.568;7.558;2024-01-15T16:52:30;1.21;101.21
73875;HTU21D;62209;47.568;7.558;2024-01-15T17:07:35;1.10;102.06
73875;HTU21D;62209;47.568;7.558;2024-01-15T17:22:41;1.09;101.60
73875;HTU21D;62209;47.568;7.558;2024-01-15T17:37:46;0.97;101.55
73875;HTU21D;62209;47.568;7.558;2024-01-15T17:52:52;0.92;101.18
73875;HTU21D;62209;47.568;7.558;2024-01-15T18:07:57;0.81;101.37
73875;HTU21D;62209;47.568;7.558;2024-01-15T18:23:03;0.72;100.59
73875;HTU21D;62209;47.568;7.558;2024-01-15T18:38:09;0.50;99.73
73875;HTU21D;62209;47.568;7.558;2024-01-15T18:53:15;0.29;100.48
73875;HTU21D;62209;47.568;7.558;2024-01-15T19:08:21;0.08;100.46
73875;HTU21D;62209;47.568;7.558;2024-01-15T19:23:26;0.02;100.23
73875;HTU21D;62209;47.568;7.558;2024-01-15T19:38:32;0.04;98.67
73875;HTU21D;62209;47.568;7.558;2024-01-15T19:53:38;0.02;97.99
73875;HTU21D;62209;47.568;7.558;2024-01-15T20:08:44;-0.03;96.07
73875;HTU21D;62209;47.568;7.558;2024-01-15T20:23:49;-0.16;96.13
73875;HTU21D;62209;47.568;7.558;2024-01-15T20:39:03;-0.23;95.90
73875;HTU21D;62209;47.568;7.558;2024-01-15T20:54:10;-0.41;96.81
73875;HTU21D;62209;47.568;7.558;2024-01-15T21:09:15;-0.56;97.41
73875;HTU21D;62209;47.568;7.558;2024-01-15T21:24:21;-0.61;96.97
73875;HTU21D;62209;47.568;7.558;2024-01-15T21:39:31;-0.86;97.79
73875;HTU21D;62209;47.568;7.558;2024-01-15T21:54:37;-1.05;98.10
73875;HTU21D;62209;47.568;7.558;2024-01-15T22:09:42;-1.28;97.96
73875;HTU21D;62209;47.568;7.558;2024-01-15T22:24:48;-1.57;97.90
73875;HTU21D;62209;47.568;7.558;2024-01-15T22:39:54;-1.98;98.99
73875;HTU21D;62209;47.568;7.558;2024-01-15T22:54:59;-2.39;99.05
73875;HTU21D;62209;47.568;7.558;2024-01-15T23:10:07;-2.68;99.16
73875;HTU21D;62209;47.568;7.558;2024-01-15T23:25:13;-2.81;99.83
73875;HTU21D;62209;47.568;7.558;2024-01-15T23:40:19;-3.15;99.95
73875;HTU21D;62209;47.568;7.558;2024-01-15T23:55:24;-3.40;101.01
